createdAt,value
2023-04-04T00:00:51.562Z,98592.63
2023-04-04T00:03:54.634Z,98602.31
2023-04-04T00:06:57.822Z,98590.87
2023-04-04T00:10:00.944Z,98595.28
2023-04-04T00:13:03.717Z,98596.19
2023-04-04T00:16:07.127Z,98586.44
2023-04-04T00:19:11.709Z,98598.81
2023-04-04T00:22:14.512Z,98593.53
2023-04-04T00:25:17.105Z,98603.25
2023-04-04T00:28:21.281Z,98609.41
2023-04-04T00:31:23.904Z,98605.03
2023-04-04T00:34:26.891Z,98617.41
2023-04-04T00:37:29.655Z,98603.22
2023-04-04T00:40:32.459Z,98600.63
2023-04-04T00:43:35.395Z,98600.63
2023-04-04T00:46:38.305Z,98544.19
2023-04-04T00:49:40.963Z,98608.56
2023-04-04T00:52:44.573Z,98607.69
2023-04-04T00:55:47.182Z,98605.03
2023-04-04T00:58:50.129Z,98595.34
2023-04-04T01:01:53.174Z,98592.69
2023-04-04T01:04:56.283Z,98581.19
2023-04-04T01:07:59.215Z,98567.09
2023-04-04T01:11:02.296Z,98567.09
2023-04-04T01:14:04.965Z,98571.50
2023-04-04T01:17:08.899Z,98553.87
2023-04-04T01:20:15.811Z,98555.66
2023-04-04T01:23:19.901Z,98545.03
2023-04-04T01:26:23.729Z,98544.19
2023-04-04T01:29:27.759Z,98530.94
2023-04-04T01:32:59.781Z,98533.56
2023-04-04T01:36:26.559Z,98537.09
2023-04-04T01:39:37.130Z,98523.88
2023-04-04T01:42:40.521Z,98530.94
2023-04-04T01:45:43.270Z,98522.13
2023-04-04T01:48:47.188Z,98516.81
2023-04-04T01:51:52.782Z,98515.94
2023-04-04T01:54:55.866Z,98510.66
2023-04-04T01:57:58.829Z,98501.81
2023-04-04T02:01:01.783Z,98498.28
2023-04-04T02:04:05.303Z,98493.84
2023-04-04T02:07:08.295Z,98487.72
2023-04-04T02:10:11.627Z,98485.91
2023-04-04T02:13:14.308Z,98470.06
2023-04-04T02:16:18.294Z,98467.41
2023-04-04T02:19:21.325Z,98463.91
2023-04-04T02:22:24.246Z,98453.31
2023-04-04T02:25:27.018Z,98448.91
2023-04-04T02:28:31.472Z,98445.38
2023-04-04T02:31:34.749Z,98444.50
2023-04-04T02:34:38.155Z,98443.63
2023-04-04T02:37:41.343Z,98441.88
2023-04-04T02:40:47.656Z,98439.22
2023-04-04T02:43:50.502Z,98455.06
2023-04-04T02:46:53.851Z,98450.66
2023-04-04T02:49:59.144Z,98444.47
2023-04-04T02:53:03.028Z,98451.53
2023-04-04T02:56:06.482Z,98457.72
2023-04-04T02:59:09.814Z,98466.53
2023-04-04T03:02:12.461Z,98459.50
2023-04-04T03:05:15.422Z,98471.84
2023-04-04T03:08:18.883Z,98470.09
2023-04-04T03:11:21.830Z,98470.09
2023-04-04T03:14:26.686Z,98470.09
2023-04-04T03:17:30.315Z,98469.19
2023-04-04T03:20:33.214Z,98472.75
2023-04-04T03:23:36.039Z,98473.62
2023-04-04T03:26:39.430Z,98473.59
2023-04-04T03:29:42.720Z,98475.41
2023-04-04T03:32:45.491Z,98486.84
2023-04-04T03:35:48.402Z,98480.66
2023-04-04T03:38:51.181Z,98483.31
2023-04-04T03:41:54.162Z,98489.50
2023-04-04T03:44:56.717Z,98488.62
2023-04-04T03:48:01.512Z,98497.44
2023-04-04T03:51:05.422Z,98483.31
2023-04-04T03:54:08.428Z,98487.72
2023-04-04T03:57:11.354Z,98490.38
2023-04-04T04:00:16.529Z,98482.47
2023-04-04T04:03:19.782Z,98466.56
2023-04-04T04:06:22.605Z,98474.50
2023-04-04T04:09:26.255Z,98469.25
2023-04-04T04:12:28.951Z,98465.72
2023-04-04T04:15:31.828Z,98465.69
2023-04-04T04:18:35.340Z,98467.47
2023-04-04T04:21:38.572Z,98411.06
2023-04-04T04:24:41.125Z,98470.13
2023-04-04T04:27:44.963Z,98473.66
2023-04-04T04:30:47.834Z,98481.56
2023-04-04T04:33:51.583Z,98462.19
2023-04-04T04:36:55.175Z,98476.28
2023-04-04T04:39:58.651Z,98471.00
2023-04-04T04:43:02.746Z,98470.13
2023-04-04T04:46:05.743Z,98465.72
2023-04-04T04:49:08.795Z,98472.75
2023-04-04T04:52:11.878Z,98460.41
2023-04-04T04:55:18.425Z,98457.75
2023-04-04T04:58:24.379Z,98469.25
2023-04-04T05:01:28.725Z,98470.97
2023-04-04T05:04:32.286Z,98461.28
2023-04-04T05:07:35.337Z,98471.88
2023-04-04T05:10:39.444Z,98470.13
2023-04-04T05:13:43.483Z,98480.69
2023-04-04T05:16:48.329Z,98476.28
2023-04-04T05:19:52.471Z,98478.94
2023-04-04T05:22:55.798Z,98474.50
2023-04-04T05:25:58.993Z,98482.44
2023-04-04T05:29:02.189Z,98478.03
2023-04-04T05:32:05.767Z,98474.50
2023-04-04T05:35:09.612Z,98481.53
2023-04-04T05:38:13.310Z,98483.31
2023-04-04T05:41:16.549Z,98478.88
2023-04-04T05:44:19.372Z,98478.00
2023-04-04T05:47:22.843Z,98475.34
2023-04-04T05:50:27.093Z,98479.75
2023-04-04T05:53:34.840Z,98483.25
2023-04-04T05:56:38.372Z,98481.47
2023-04-04T05:59:42.335Z,98489.41
2023-04-04T06:02:45.505Z,98462.06
2023-04-04T06:05:52.747Z,98480.56
2023-04-04T06:08:56.007Z,98472.56
2023-04-04T06:11:59.113Z,98483.19
2023-04-04T06:15:01.645Z,98487.56
2023-04-04T06:18:05.689Z,98486.63
2023-04-04T06:21:08.795Z,98491.94
2023-04-04T06:24:12.006Z,98498.87
2023-04-04T06:27:14.898Z,98503.19
2023-04-04T06:30:18.286Z,98497.78
2023-04-04T06:33:21.350Z,98474.69
2023-04-04T06:36:24.902Z,98466.56
2023-04-04T06:39:29.053Z,98448.88
2023-04-04T06:42:33.497Z,98453.25
2023-04-04T06:45:37.750Z,98455.03
2023-04-04T06:48:40.828Z,98450.50
2023-04-04T06:51:43.446Z,98442.44
2023-04-04T06:54:46.390Z,98440.59
2023-04-04T06:57:50.195Z,98443.16
2023-04-04T07:00:53.108Z,98448.41
2023-04-04T07:03:55.646Z,98436.00
2023-04-04T07:06:58.465Z,98442.09
2023-04-04T07:10:01.234Z,98456.38
2023-04-04T07:13:04.221Z,98453.56
2023-04-04T07:16:07.141Z,98460.59
2023-04-04T07:19:09.936Z,98449.84
2023-04-04T07:22:13.305Z,98460.25
2023-04-04T07:25:16.119Z,98463.56
2023-04-04T07:28:18.802Z,98466.56
2023-04-04T07:31:21.723Z,98471.53
2023-04-04T07:34:25.904Z,98453.75
2023-04-04T07:37:28.704Z,98456.28
2023-04-04T07:40:31.936Z,98462.50
2023-04-04T07:43:34.791Z,98456.69
2023-04-04T07:46:38.365Z,98465.25
2023-04-04T07:49:41.492Z,98467.47
2023-04-04T07:52:49.502Z,98469.28
2023-04-04T07:55:52.320Z,98472.06
2023-04-04T07:58:55.115Z,98479.94
2023-04-04T08:01:58.030Z,98472.16
2023-04-04T08:05:01.415Z,98470.13
2023-04-04T08:08:04.059Z,98473.50
2023-04-04T08:11:07.126Z,98483.28
2023-04-04T08:14:13.136Z,98471.81
2023-04-04T08:17:19.160Z,98468.53
2023-04-04T08:20:21.739Z,98460.47
2023-04-04T08:23:24.667Z,98471.63
2023-04-04T08:26:27.231Z,98465.97
2023-04-04T08:29:31.921Z,98469.91
2023-04-04T08:32:34.508Z,98484.16
2023-04-04T08:35:37.566Z,98486.59
2023-04-04T08:38:40.120Z,98493.09
2023-04-04T08:41:44.049Z,98493.28
2023-04-04T08:44:49.857Z,98479.38
2023-04-04T08:47:53.996Z,98463.16
2023-04-04T08:50:59.676Z,98468.34
2023-04-04T08:54:02.906Z,98472.03
2023-04-04T08:57:05.528Z,98467.19
2023-04-04T09:00:09.271Z,98461.66
2023-04-04T09:03:28.324Z,98448.78
2023-04-04T09:06:32.080Z,98445.28
2023-04-04T09:09:37.268Z,98453.50
2023-04-04T09:12:43.154Z,98455.59
2023-04-04T09:15:51.729Z,98453.66
2023-04-04T09:18:54.844Z,98436.94
2023-04-04T09:21:58.146Z,98446.81
2023-04-04T09:25:01.497Z,98440.22
2023-04-04T09:28:05.767Z,98437.06
2023-04-04T09:31:10.190Z,98450.38
2023-04-04T09:34:17.787Z,98439.78
2023-04-04T09:37:20.778Z,98452.50
2023-04-04T09:40:24.151Z,98443.66
2023-04-04T09:43:30.722Z,98433.50
2023-04-04T09:46:37.230Z,98435.47
2023-04-04T09:49:40.288Z,98430.06
2023-04-04T09:52:44.369Z,98423.81
2023-04-04T09:55:57.485Z,98428.31
2023-04-04T09:59:04.641Z,98437.66
2023-04-04T10:02:10.479Z,98430.97
2023-04-04T10:05:13.774Z,98444.22
2023-04-04T10:08:22.024Z,98429.22
2023-04-04T10:11:36.076Z,98442.12
2023-04-04T10:14:38.793Z,98438.22
2023-04-04T10:17:42.085Z,98440.50
2023-04-04T10:20:45.025Z,98432.72
2023-04-04T10:23:48.896Z,98427.78
2023-04-04T10:26:51.448Z,98428.03
2023-04-04T10:29:54.779Z,98427.03
2023-04-04T10:33:07.795Z,98420.84
2023-04-04T10:36:12.499Z,98422.66
2023-04-04T10:39:27.317Z,98425.91
2023-04-04T10:42:33.522Z,98421.44
2023-04-04T10:45:38.871Z,98419.22
2023-04-04T10:48:42.471Z,98409.66
2023-04-04T10:51:54.956Z,98412.88
2023-04-04T10:55:00.695Z,98418.03
2023-04-04T10:58:03.802Z,98426.34
2023-04-04T11:01:07.958Z,98418.88
2023-04-04T11:04:21.948Z,98418.31
2023-04-04T11:07:29.273Z,98430.53
2023-04-04T11:10:34.597Z,98428.75
2023-04-04T11:13:38.120Z,98421.94
2023-04-04T11:16:47.040Z,98418.50
2023-04-04T11:20:00.071Z,98422.47
2023-04-04T11:23:10.754Z,98409.94
2023-04-04T11:26:13.821Z,98408.37
2023-04-04T11:29:52.948Z,98413.81
2023-04-04T11:33:07.391Z,98407.31
2023-04-04T11:36:24.762Z,98382.84
2023-04-04T11:39:29.516Z,98413.50
2023-04-04T11:42:38.536Z,98415.00
2023-04-04T11:45:44.851Z,98405.16
2023-04-04T11:48:47.865Z,98400.72
2023-04-04T11:51:52.696Z,98393.75
2023-04-04T11:54:55.249Z,98399.66
2023-04-04T11:58:12.116Z,98398.81
2023-04-04T12:01:15.856Z,98385.94
2023-04-04T12:04:20.060Z,98389.75
2023-04-04T12:07:24.746Z,98392.81
2023-04-04T12:10:29.522Z,98373.31
2023-04-04T12:13:32.259Z,98370.53
2023-04-04T12:16:35.970Z,98383.16
2023-04-04T12:19:39.772Z,98379.84
2023-04-04T12:22:43.635Z,98373.06
2023-04-04T12:25:49.881Z,98366.16
2023-04-04T12:28:55.340Z,98370.72
2023-04-04T12:31:58.203Z,98366.66
2023-04-04T12:35:01.555Z,98360.66
2023-04-04T12:38:10.615Z,98363.69
2023-04-04T12:41:19.562Z,98360.69
2023-04-04T12:44:30.390Z,98358.38
2023-04-04T12:47:34.068Z,98348.09
2023-04-04T12:50:54.316Z,98349.50
2023-04-04T12:53:58.379Z,98353.47
2023-04-04T12:57:04.273Z,98354.72
2023-04-04T13:00:09.196Z,98365.09
2023-04-04T13:03:14.616Z,98360.09
2023-04-04T13:06:17.763Z,98352.53
2023-04-04T13:09:22.794Z,98346.41
2023-04-04T13:12:26.544Z,98325.94
2023-04-04T13:15:48.329Z,98343.19
2023-04-04T13:18:51.764Z,98332.84
2023-04-04T13:21:54.609Z,98348.75
2023-04-04T13:24:57.602Z,98339.09
2023-04-04T13:28:00.648Z,98339.97
2023-04-04T13:31:04.765Z,98346.22
2023-04-04T13:34:07.426Z,98339.34
2023-04-04T13:37:10.292Z,98337.00
2023-04-04T13:40:14.291Z,98331.31
2023-04-04T13:43:17.093Z,98334.31
2023-04-04T13:46:19.779Z,98337.72
2023-04-04T13:49:22.662Z,98341.25
2023-04-04T13:52:25.424Z,98337.09
2023-04-04T13:55:28.357Z,98342.66
2023-04-04T13:58:31.070Z,98340.19
2023-04-04T14:01:34.123Z,98340.22
2023-04-04T14:04:37.453Z,98346.06
2023-04-04T14:07:41.101Z,98341.25
2023-04-04T14:10:44.160Z,98334.81
2023-04-04T14:13:46.971Z,98338.87
2023-04-04T14:16:49.807Z,98337.47
2023-04-04T14:19:52.463Z,98334.22
2023-04-04T14:22:55.420Z,98336.44
2023-04-04T14:25:58.224Z,98338.50
2023-04-04T14:29:01.126Z,98341.84
2023-04-04T14:32:03.962Z,98343.06
2023-04-04T14:35:07.066Z,98337.72
2023-04-04T14:38:09.613Z,98347.28
2023-04-04T14:41:13.478Z,98353.53
2023-04-04T14:44:16.511Z,98351.94
2023-04-04T14:47:19.434Z,98351.84
2023-04-04T14:50:22.142Z,98354.69
2023-04-04T14:53:25.037Z,98357.41
2023-04-04T14:56:27.606Z,98363.94
2023-04-04T14:59:32.115Z,98348.25
2023-04-04T15:02:34.846Z,98361.72
2023-04-04T15:05:38.222Z,98352.69
2023-04-04T15:08:43.985Z,98354.72
2023-04-04T15:11:47.482Z,98366.94
2023-04-04T15:14:50.005Z,98359.28
2023-04-04T15:17:52.971Z,98363.19
2023-04-04T15:20:57.557Z,98357.47
2023-04-04T15:24:00.518Z,98313.69
2023-04-04T15:27:03.063Z,98374.81
2023-04-04T15:30:06.737Z,98379.59
2023-04-04T15:33:09.522Z,98376.75
2023-04-04T15:36:12.378Z,98375.88
2023-04-04T15:39:14.890Z,98378.91
2023-04-04T15:42:17.769Z,98378.06
2023-04-04T15:45:20.501Z,98399.56
2023-04-04T15:48:23.442Z,98395.84
2023-04-04T15:51:25.940Z,98396.31
2023-04-04T15:54:31.160Z,98395.31
2023-04-04T15:57:33.677Z,98404.75
2023-04-04T16:00:37.210Z,98407.66
2023-04-04T16:03:40.510Z,98407.97
2023-04-04T16:06:43.189Z,98411.97
2023-04-04T16:09:46.130Z,98410.34
2023-04-04T16:12:48.960Z,98413.41
2023-04-04T16:15:51.877Z,98418.97
2023-04-04T16:18:54.420Z,98431.41
2023-04-04T16:21:58.017Z,98436.22
2023-04-04T16:25:00.603Z,98431.09
2023-04-04T16:28:03.432Z,98437.09
2023-04-04T16:31:06.775Z,98446.13
2023-04-04T16:34:09.811Z,98447.06
2023-04-04T16:37:13.250Z,98447.38
2023-04-04T16:40:16.554Z,98440.38
2023-04-04T16:43:19.104Z,98448.66
2023-04-04T16:46:22.029Z,98450.50
2023-04-04T16:49:25.386Z,98462.22
2023-04-04T16:52:28.500Z,98456.97
2023-04-04T16:55:31.133Z,98459.69
2023-04-04T16:58:34.029Z,98459.94
2023-04-04T17:01:37.710Z,98463.63
2023-04-04T17:04:42.017Z,98465.81
2023-04-04T17:07:46.472Z,98475.50
2023-04-04T17:10:50.816Z,98476.75
2023-04-04T17:13:53.903Z,98489.16
2023-04-04T17:17:02.645Z,98493.66
2023-04-04T17:20:06.066Z,98494.75
2023-04-04T17:23:11.892Z,98494.97
2023-04-04T17:26:14.484Z,98498.59
2023-04-04T17:29:18.667Z,98504.06
2023-04-04T17:32:23.960Z,98503.31
2023-04-04T17:35:27.525Z,98513.19
2023-04-04T17:38:30.910Z,98516.75
2023-04-04T17:41:34.573Z,98516.78
2023-04-04T17:44:37.117Z,98523.09
2023-04-04T17:47:40.005Z,98532.06
2023-04-04T17:50:44.332Z,98540.31
2023-04-04T17:53:48.051Z,98537.75
2023-04-04T17:56:50.937Z,98537.81
2023-04-04T17:59:54.426Z,98541.53
2023-04-04T18:02:57.216Z,98546.03
2023-04-04T18:06:01.367Z,98546.06
2023-04-04T18:09:05.367Z,98540.81
2023-04-04T18:12:09.611Z,98555.03
2023-04-04T18:15:12.756Z,98559.59
2023-04-04T18:18:18.925Z,98562.44
2023-04-04T18:21:24.551Z,98571.28
2023-04-04T18:24:28.058Z,98574.03
2023-04-04T18:27:31.152Z,98567.87
2023-04-04T18:30:36.641Z,98572.34
2023-04-04T18:33:40.164Z,98574.25
2023-04-04T18:36:43.669Z,98586.72
2023-04-04T18:39:46.876Z,98585.00
2023-04-04T18:42:49.957Z,98585.09
2023-04-04T18:45:53.682Z,98596.59
2023-04-04T18:48:57.166Z,98578.16
2023-04-04T18:52:00.330Z,98602.94
2023-04-04T18:55:05.587Z,98603.06
2023-04-04T18:58:08.246Z,98608.44
2023-04-04T19:01:12.017Z,98608.44
2023-04-04T19:04:19.446Z,98611.94
2023-04-04T19:07:24.596Z,98607.50
2023-04-04T19:10:28.133Z,98617.28
2023-04-04T19:13:31.275Z,98611.16
2023-04-04T19:16:34.401Z,98620.06
2023-04-04T19:19:40.619Z,98620.16
2023-04-04T19:22:44.633Z,98621.97
2023-04-04T19:25:47.912Z,98636.03
2023-04-04T19:28:51.180Z,98636.16
2023-04-04T19:31:55.123Z,98616.72
2023-04-04T19:34:58.033Z,98638.78
2023-04-04T19:38:01.441Z,98643.22
2023-04-04T19:41:16.629Z,98645.91
2023-04-04T19:44:20.746Z,98645.94
2023-04-04T19:47:23.389Z,98654.81
2023-04-04T19:50:38.050Z,98657.53
2023-04-04T19:53:42.268Z,98660.19
2023-04-04T19:56:46.402Z,98654.88
2023-04-04T19:59:57.069Z,98662.00
2023-04-04T20:03:06.310Z,98668.19
2023-04-04T20:06:13.256Z,98669.09
2023-04-04T20:09:32.506Z,98663.78
2023-04-04T20:12:35.438Z,98656.75
2023-04-04T20:15:43.737Z,98657.63
2023-04-04T20:18:47.020Z,98662.97
2023-04-04T20:21:49.991Z,98658.59
2023-04-04T20:24:53.319Z,98657.66
2023-04-04T20:27:55.798Z,98658.59
2023-04-04T20:31:01.846Z,98636.53
2023-04-04T20:34:07.325Z,98655.94
2023-04-04T20:37:11.653Z,98657.72
2023-04-04T20:40:38.414Z,98667.47
2023-04-04T20:43:51.611Z,98656.00
2023-04-04T20:46:54.252Z,98660.44
2023-04-04T20:49:57.181Z,98662.19
2023-04-04T20:53:01.655Z,98656.00
2023-04-04T20:56:11.157Z,98658.66
2023-04-04T20:59:34.426Z,98657.78
2023-04-04T21:02:37.371Z,98657.84
2023-04-04T21:05:40.334Z,98659.56
2023-04-04T21:08:46.291Z,98659.63
2023-04-04T21:11:48.767Z,98664.03
2023-04-04T21:14:51.584Z,98666.72
2023-04-04T21:18:15.237Z,98664.97
2023-04-04T21:21:19.678Z,98664.97
2023-04-04T21:24:22.336Z,98669.38
2023-04-04T21:27:34.893Z,98667.59
2023-04-04T21:30:43.915Z,98671.16
2023-04-04T21:33:48.481Z,98668.53
2023-04-04T21:36:55.911Z,98664.09
2023-04-04T21:40:00.569Z,98668.53
2023-04-04T21:43:03.331Z,98673.84
2023-04-04T21:46:06.280Z,98679.12
2023-04-04T21:49:09.559Z,98672.94
2023-04-04T21:52:12.470Z,98667.66
2023-04-04T21:55:15.475Z,98671.19
2023-04-04T21:58:18.956Z,98667.66
2023-04-04T22:01:21.862Z,98672.09
2023-04-04T22:04:24.860Z,98665.88
2023-04-04T22:07:27.364Z,98677.41
2023-04-04T22:10:31.111Z,98661.47
2023-04-04T22:13:34.042Z,98665.03
2023-04-04T22:16:39.464Z,98662.38
2023-04-04T22:19:42.930Z,98658.81
2023-04-04T22:22:46.256Z,98664.12
2023-04-04T22:25:48.708Z,98659.72
2023-04-04T22:28:51.457Z,98658.84
2023-04-04T22:31:54.026Z,98666.78
2023-04-04T22:34:57.636Z,98665.03
2023-04-04T22:38:09.862Z,98663.25
2023-04-04T22:41:12.939Z,98669.44
2023-04-04T22:44:15.688Z,98673.88
2023-04-04T22:47:18.552Z,98671.22
2023-04-04T22:50:24.961Z,98668.56
2023-04-04T22:53:28.217Z,98650.94
2023-04-04T22:56:31.477Z,98656.22
2023-04-04T22:59:34.630Z,98656.22
2023-04-04T23:02:38.658Z,98655.31
2023-04-04T23:05:42.216Z,98656.19
2023-04-04T23:08:44.730Z,98655.34
2023-04-04T23:11:47.547Z,98658.87
2023-04-04T23:14:50.191Z,98659.75
2023-04-04T23:17:53.172Z,98653.59
2023-04-04T23:20:55.920Z,98650.94
2023-04-04T23:23:58.778Z,98651.81
2023-04-04T23:27:01.329Z,98658.87
2023-04-04T23:30:05.088Z,98655.34
2023-04-04T23:33:07.877Z,98662.44
2023-04-04T23:36:11.142Z,98649.19
2023-04-04T23:39:14.860Z,98646.53
2023-04-04T23:42:17.687Z,98655.34
2023-04-04T23:45:21.233Z,98661.53
2023-04-04T23:48:24.189Z,98655.38
2023-04-04T23:51:30.416Z,98656.25
2023-04-04T23:54:33.415Z,98637.72
2023-04-04T23:57:35.977Z,98647.41
